createdAt,value
2019-03-18T00:29:50.288Z,99.99
2019-03-18T00:30:50.280Z,99.99
2019-03-18T01:11:11.241Z,99.99
2019-03-18T01:12:11.234Z,99.99
2019-03-18T01:13:11.217Z,99.99
2019-03-18T01:14:11.207Z,99.99
2019-03-18T01:15:11.194Z,99.99
2019-03-18T01:16:11.186Z,99.99
2019-03-18T01:17:11.175Z,99.99
2019-03-18T01:18:11.168Z,99.99
2019-03-18T01:19:11.169Z,99.99
2019-03-18T01:39:06.189Z,99.99
2019-03-18T01:40:06.165Z,99.99
2019-03-18T01:41:06.150Z,99.99
2019-03-18T01:42:06.142Z,99.99
2019-03-18T01:43:06.136Z,99.99
2019-03-18T02:58:50.691Z,99.99
2019-03-18T02:59:50.693Z,99.99
2019-03-18T03:00:50.671Z,99.99
2019-03-18T03:01:50.664Z,99.99
2019-03-18T03:02:50.657Z,99.99
2019-03-18T03:03:50.644Z,99.99
2019-03-18T03:05:33.037Z,99.99
2019-03-18T03:06:33.030Z,99.99
2019-03-18T03:07:33.020Z,99.99
2019-03-18T03:08:33.009Z,99.99
2019-03-18T03:09:32.999Z,99.99
2019-03-18T03:10:32.992Z,99.99
2019-03-18T03:11:34.516Z,99.99
2019-03-18T03:12:32.970Z,99.99
2019-03-18T03:13:32.956Z,99.99
2019-03-18T03:14:33.149Z,99.99
2019-03-18T03:15:33.136Z,99.99
2019-03-18T03:16:32.931Z,99.99
2019-03-18T03:17:32.913Z,99.99
2019-03-18T04:25:39.379Z,99.99
2019-03-18T04:26:39.387Z,99.99
2019-03-18T04:27:39.360Z,99.99
2019-03-18T04:28:39.360Z,99.99
2019-03-18T04:29:39.342Z,99.99
2019-03-18T04:30:39.328Z,99.99
2019-03-18T04:31:39.322Z,99.99
2019-03-18T04:32:39.329Z,99.99
2019-03-18T04:33:39.563Z,99.99
2019-03-18T04:34:39.289Z,99.99
2019-03-18T04:37:11.806Z,99.99
2019-03-18T04:42:20.701Z,99.99
2019-03-18T04:43:20.693Z,99.99
2019-03-18T04:44:20.680Z,99.99
2019-03-18T04:45:20.680Z,99.99
2019-03-18T04:46:20.664Z,99.99
2019-03-18T04:47:20.674Z,99.99
2019-03-18T04:48:20.641Z,99.99
2019-03-18T04:49:20.634Z,99.99
2019-03-18T04:54:39.694Z,99.99
2019-03-18T04:55:39.687Z,99.99
2019-03-18T04:56:39.675Z,99.99
2019-03-18T04:57:39.672Z,99.99
2019-03-18T04:58:39.655Z,99.99
2019-03-18T05:34:14.099Z,99.99
2019-03-18T05:35:14.087Z,99.99
2019-03-18T05:36:14.077Z,99.99
2019-03-18T05:37:14.070Z,99.99
2019-03-18T05:38:14.058Z,99.99
2019-03-18T05:39:14.051Z,99.99
2019-03-18T05:40:14.035Z,99.99
2019-03-18T05:41:14.027Z,99.99
2019-03-18T05:42:14.014Z,99.99
2019-03-18T05:43:14.007Z,99.99
2019-03-18T05:44:13.994Z,99.99
2019-03-18T05:45:13.986Z,99.99
2019-03-18T05:46:13.973Z,99.99
2019-03-18T05:47:13.966Z,99.99
2019-03-18T05:48:13.953Z,99.99
2019-03-18T05:49:13.949Z,99.99
2019-03-18T05:50:13.936Z,99.99
2019-03-18T05:51:13.926Z,99.99
2019-03-18T05:52:13.913Z,99.99
2019-03-18T05:53:13.907Z,99.99
2019-03-18T05:54:13.974Z,99.99
2019-03-18T05:55:13.886Z,99.99
2019-03-18T05:56:13.873Z,99.99
2019-03-18T05:57:13.865Z,99.99
2019-03-18T05:58:13.856Z,99.99
2019-03-18T05:59:13.847Z,99.99
2019-03-18T06:00:13.844Z,99.99
2019-03-18T06:01:13.828Z,99.99
2019-03-18T06:02:13.813Z,99.99
2019-03-18T06:03:13.805Z,99.99
2019-03-18T06:04:13.793Z,99.99
2019-03-18T06:05:13.785Z,99.99
2019-03-18T06:06:13.773Z,99.99
2019-03-18T06:07:13.767Z,99.99
2019-03-18T06:08:13.754Z,99.99
2019-03-18T06:09:13.902Z,99.99
2019-03-18T06:10:13.734Z,99.99
2019-03-18T06:11:13.730Z,99.99
2019-03-18T06:12:13.714Z,99.99
2019-03-18T06:13:13.707Z,99.99
2019-03-18T06:14:13.696Z,99.99
2019-03-18T06:15:13.693Z,99.99
2019-03-18T06:16:13.679Z,99.99
2019-03-18T06:17:13.668Z,99.99
2019-03-18T06:18:13.656Z,99.99
2019-03-18T06:19:13.649Z,99.99
2019-03-18T06:20:13.637Z,99.99
2019-03-18T06:21:13.630Z,99.99
2019-03-18T06:22:13.621Z,99.99
2019-03-18T06:23:13.611Z,99.99
2019-03-18T06:24:13.598Z,99.99
2019-03-18T06:25:13.600Z,99.99
2019-03-18T06:26:13.582Z,99.99
2019-03-18T06:27:13.584Z,99.99
2019-03-18T06:28:13.861Z,99.99
2019-03-18T06:29:13.553Z,99.99
2019-03-18T06:30:13.542Z,99.99
2019-03-18T06:31:13.536Z,99.99
2019-03-18T06:32:13.523Z,99.99
2019-03-18T06:34:13.525Z,99.99
2019-03-18T06:35:13.497Z,99.99
2019-03-18T06:36:13.487Z,99.99
2019-03-18T06:37:13.476Z,99.99
2019-03-18T06:38:13.469Z,99.99
2019-03-18T06:39:13.466Z,99.99
2019-03-18T06:40:13.451Z,99.99
2019-03-18T06:41:13.439Z,99.99
2019-03-18T06:42:13.432Z,99.99
2019-03-18T06:43:13.421Z,99.99
2019-03-18T06:44:13.415Z,99.99
2019-03-18T06:46:13.394Z,99.99
2019-03-18T06:47:13.387Z,99.99
2019-03-18T06:48:13.395Z,99.99
2019-03-18T06:49:13.368Z,99.99
2019-03-18T06:50:13.400Z,99.99
2019-03-18T06:51:13.350Z,99.99
2019-03-18T06:52:13.338Z,99.99
2019-03-18T06:54:13.325Z,99.99
2019-03-18T06:55:13.316Z,99.99
2019-03-18T06:56:13.307Z,99.99
2019-03-18T06:57:13.295Z,99.99
2019-03-18T06:58:13.288Z,99.99
2019-03-18T06:59:13.276Z,99.99
2019-03-18T07:00:13.270Z,99.99
2019-03-18T07:01:13.260Z,99.99
2019-03-18T07:02:13.316Z,99.99
2019-03-18T07:03:13.242Z,99.99
2019-03-18T07:04:13.237Z,99.99
2019-03-18T07:05:13.229Z,99.99
2019-03-18T07:06:13.217Z,99.99
2019-03-18T07:07:13.207Z,99.99
2019-03-18T07:08:13.202Z,99.99
2019-03-18T07:09:13.189Z,99.99
2019-03-18T07:10:13.183Z,99.99
2019-03-18T08:06:06.122Z,99.99
2019-03-18T08:07:06.116Z,99.99
2019-03-18T12:24:11.711Z,94.46
2019-03-18T12:25:11.724Z,92.84
2019-03-18T12:26:11.702Z,91.99
2019-03-18T12:27:12.306Z,91.55
2019-03-18T12:28:11.691Z,90.41
2019-03-18T13:10:26.951Z,67.46
2019-03-18T13:11:26.993Z,69.21
2019-03-18T13:12:26.948Z,69.60
2019-03-18T13:13:26.951Z,69.98
2019-03-18T13:14:26.949Z,68.07
2019-03-18T13:15:26.953Z,67.69
2019-03-18T13:16:26.948Z,68.00
2019-03-18T13:17:26.955Z,70.16
2019-03-18T13:18:26.952Z,71.46
2019-03-18T13:19:26.953Z,72.89
2019-03-18T13:20:26.952Z,73.05
2019-03-18T13:21:26.957Z,73.62
2019-03-18T13:23:17.001Z,76.06
2019-03-18T13:24:14.381Z,78.44
2019-03-18T13:25:14.383Z,76.50
2019-03-18T13:30:53.414Z,71.13
2019-03-18T13:31:53.416Z,70.84
2019-03-18T13:32:53.418Z,71.42
2019-03-18T13:33:53.412Z,72.24
2019-03-18T13:34:53.407Z,72.85
2019-03-18T13:35:53.408Z,71.22
2019-03-18T13:48:34.181Z,70.72
2019-03-18T13:49:30.547Z,68.44
2019-03-18T13:50:30.545Z,66.05
2019-03-18T13:51:30.542Z,64.81
2019-03-18T13:52:30.539Z,64.09
2019-03-18T13:53:30.538Z,63.32
2019-03-18T13:54:32.359Z,62.65
2019-03-18T13:55:30.534Z,62.65
2019-03-18T13:56:30.530Z,62.62
2019-03-18T13:57:30.530Z,62.15
2019-03-18T13:58:30.541Z,60.43
2019-03-18T13:59:30.532Z,58.84
2019-03-18T14:00:31.338Z,59.22
2019-03-18T14:01:30.524Z,59.09
2019-03-18T14:02:30.523Z,59.51
2019-03-18T14:03:30.537Z,60.17
2019-03-18T14:04:30.527Z,59.12
2019-03-18T14:05:30.538Z,57.79
2019-03-18T14:06:30.517Z,58.17
2019-03-18T14:07:30.518Z,57.76
2019-03-18T14:08:30.515Z,58.52
2019-03-18T14:09:30.516Z,60.11
2019-03-18T14:10:30.515Z,61.45
2019-03-18T14:11:30.515Z,63.07
2019-03-18T14:12:30.511Z,63.10
2019-03-18T14:13:30.513Z,62.94
2019-03-18T14:14:30.510Z,61.22
2019-03-18T14:15:30.514Z,61.41
2019-03-18T14:16:30.508Z,60.24
2019-03-18T14:17:30.511Z,62.34
2019-03-18T14:18:30.508Z,62.94
2019-03-18T14:19:30.508Z,62.94
2019-03-18T14:20:30.509Z,62.81
2019-03-18T14:21:33.551Z,63.20
2019-03-18T14:22:30.512Z,64.72
2019-03-18T14:23:30.658Z,65.29
2019-03-18T14:24:30.506Z,65.86
2019-03-18T14:25:30.511Z,65.48
2019-03-18T14:26:30.515Z,66.63
2019-03-18T14:27:30.510Z,67.68
2019-03-18T14:28:30.518Z,67.68
2019-03-18T14:29:30.506Z,67.58
2019-03-18T14:30:30.511Z,68.05
2019-03-18T14:31:30.505Z,67.86
2019-03-18T14:32:30.502Z,67.14
2019-03-18T14:33:30.511Z,66.66
2019-03-18T14:34:30.517Z,67.71
2019-03-18T14:35:30.503Z,66.56
2019-03-18T14:36:30.501Z,67.33
2019-03-18T14:37:30.505Z,66.28
2019-03-18T14:38:30.525Z,65.42
2019-03-18T14:39:30.504Z,65.33
2019-03-18T14:41:17.969Z,64.91
2019-03-18T14:43:17.925Z,66.09
2019-03-18T14:44:17.937Z,66.38
2019-03-18T14:46:17.987Z,65.23
2019-03-18T14:47:15.366Z,64.37
2019-03-18T14:48:18.390Z,64.24
2019-03-18T14:49:15.365Z,64.05
2019-03-18T14:50:15.363Z,65.00
2019-03-18T14:51:15.364Z,65.73
2019-03-18T14:53:52.880Z,66.88
2019-03-18T14:54:52.882Z,67.41
2019-03-18T14:55:52.877Z,67.32
2019-03-18T14:56:52.878Z,67.83
2019-03-18T14:57:52.875Z,67.55
2019-03-18T14:58:52.876Z,67.89
2019-03-18T14:59:52.869Z,67.51
2019-03-18T15:00:52.869Z,67.03
2019-03-18T15:01:52.867Z,67.61
2019-03-18T15:02:52.863Z,67.13
2019-03-18T15:03:52.860Z,67.51
2019-03-18T15:04:52.859Z,67.70
2019-03-18T15:05:52.860Z,67.89
2019-03-18T15:06:52.854Z,67.22
2019-03-18T15:07:52.845Z,67.51
2019-03-18T15:08:52.845Z,67.16
2019-03-18T15:09:52.846Z,67.55
2019-03-18T15:10:52.840Z,66.31
2019-03-18T15:11:52.833Z,66.02
2019-03-18T15:12:52.829Z,64.97
2019-03-18T15:13:52.823Z,64.50
2019-03-18T15:14:52.821Z,64.40
2019-03-18T15:15:52.817Z,65.07
2019-03-18T15:16:52.814Z,65.51
2019-03-18T15:17:52.806Z,65.32
2019-03-18T15:18:52.804Z,65.70
2019-03-18T15:19:52.799Z,66.75
2019-03-18T15:20:52.796Z,66.94
2019-03-18T15:21:58.253Z,67.13
2019-03-18T15:22:52.789Z,67.22
2019-03-18T15:23:52.781Z,67.47
2019-03-18T15:24:52.778Z,68.33
2019-03-18T15:25:52.774Z,69.29
2019-03-18T15:26:52.768Z,69.57
2019-03-18T15:27:52.761Z,70.24
2019-03-18T15:28:52.758Z,69.57
2019-03-18T15:29:52.751Z,69.48
2019-03-18T15:30:52.748Z,70.33
2019-03-18T15:31:52.740Z,71.19
2019-03-18T15:32:52.738Z,71.86
2019-03-18T15:33:52.731Z,72.81
2019-03-18T15:34:52.805Z,73.57
2019-03-18T15:35:52.723Z,74.14
2019-03-18T15:36:52.715Z,75.19
2019-03-18T15:37:52.708Z,76.33
2019-03-18T15:38:52.703Z,76.52
2019-03-18T15:39:52.697Z,76.33
2019-03-18T15:40:52.693Z,77.19
2019-03-18T15:41:52.683Z,78.61
2019-03-18T15:42:52.680Z,78.90
2019-03-18T15:43:52.672Z,79.47
2019-03-18T15:44:52.670Z,80.33
2019-03-18T15:45:52.660Z,78.33
2019-03-18T15:46:52.923Z,76.57
2019-03-18T15:47:52.650Z,75.85
2019-03-18T15:48:52.646Z,75.81
2019-03-18T15:49:52.636Z,74.43
2019-03-18T15:50:52.633Z,73.34
2019-03-18T15:51:52.630Z,74.14
2019-03-18T15:52:52.620Z,75.76
2019-03-18T15:53:52.612Z,77.28
2019-03-18T15:54:54.049Z,78.57
2019-03-18T15:55:52.601Z,80.86
2019-03-18T15:56:52.596Z,82.28
2019-03-18T15:57:52.590Z,83.04
2019-03-18T15:58:52.583Z,84.00
2019-03-18T15:59:52.578Z,83.71
2019-03-18T16:00:52.571Z,84.62
2019-03-18T16:01:52.562Z,85.14
2019-03-18T16:02:52.558Z,85.42
2019-03-18T16:03:52.550Z,85.80
2019-03-18T16:04:52.545Z,85.61
2019-03-18T16:05:52.536Z,85.61
2019-03-18T16:06:52.533Z,85.71
2019-03-18T16:07:52.524Z,85.61
2019-03-18T16:08:52.521Z,86.18
2019-03-18T16:09:52.515Z,85.75
2019-03-18T16:10:52.508Z,85.61
2019-03-18T16:11:52.499Z,84.95
2019-03-18T16:12:52.496Z,84.85
2019-03-18T16:13:52.489Z,85.04
2019-03-18T16:14:52.483Z,84.85
2019-03-18T16:15:52.474Z,85.04
2019-03-18T16:17:01.483Z,85.61
2019-03-18T16:17:52.473Z,85.80
2019-03-18T16:18:52.459Z,85.99
2019-03-18T16:19:52.450Z,85.38
2019-03-18T16:20:52.451Z,86.33
2019-03-18T16:21:52.438Z,87.09
2019-03-18T16:22:52.445Z,88.04
2019-03-18T16:23:52.425Z,86.99
2019-03-18T16:24:52.422Z,87.28
2019-03-18T16:25:52.411Z,87.76
2019-03-18T16:26:52.418Z,87.57
2019-03-18T16:27:52.402Z,87.38
2019-03-18T16:28:52.396Z,87.85
2019-03-18T16:29:52.386Z,86.71
2019-03-18T16:30:52.382Z,87.95
2019-03-18T16:31:52.374Z,87.28
2019-03-18T16:32:52.369Z,87.28
2019-03-18T16:33:52.362Z,88.04
2019-03-18T16:34:52.355Z,88.23
2019-03-18T16:35:52.347Z,87.95
2019-03-18T16:36:52.343Z,87.85
2019-03-18T16:37:52.335Z,87.95
2019-03-18T16:38:52.329Z,88.04
2019-03-18T16:39:52.321Z,87.85
2019-03-18T16:40:52.316Z,87.57
2019-03-18T16:41:54.312Z,87.47
2019-03-18T16:42:52.306Z,88.61
2019-03-18T16:43:52.293Z,87.95
2019-03-18T16:44:52.291Z,87.85
2019-03-18T16:45:52.279Z,88.23
2019-03-18T16:46:52.276Z,87.95
2019-03-18T16:47:52.517Z,88.23
2019-03-18T16:48:52.262Z,88.42
2019-03-18T16:49:52.252Z,88.04
2019-03-18T16:50:52.248Z,88.52
2019-03-18T16:51:52.240Z,88.52
2019-03-18T16:52:52.248Z,88.04
2019-03-18T16:53:52.237Z,88.33
2019-03-18T16:54:52.238Z,88.90
2019-03-18T16:55:52.215Z,88.33
2019-03-18T16:56:52.208Z,89.00
2019-03-18T16:57:52.198Z,88.80
2019-03-18T16:58:53.588Z,88.90
2019-03-18T16:59:52.185Z,88.42
2019-03-18T17:00:52.181Z,89.09
2019-03-18T17:01:52.181Z,88.42
2019-03-18T17:02:52.180Z,88.23
2019-03-18T17:03:52.158Z,89.18
2019-03-18T17:04:52.254Z,88.61
2019-03-18T17:05:52.144Z,88.42
2019-03-18T17:06:52.196Z,88.33
2019-03-18T17:07:54.287Z,88.71
2019-03-18T17:08:52.127Z,88.23
2019-03-18T17:09:52.125Z,88.33
2019-03-18T17:10:52.114Z,88.71
2019-03-18T17:11:52.108Z,88.33
2019-03-18T17:12:52.101Z,89.28
2019-03-18T17:13:52.091Z,89.09
2019-03-18T17:14:52.086Z,88.80
2019-03-18T17:15:52.077Z,89.75
2019-03-18T17:16:52.073Z,90.14
2019-03-18T17:17:52.066Z,90.42
2019-03-18T17:18:52.060Z,90.19
2019-03-18T17:19:52.056Z,91.13
2019-03-18T17:20:52.046Z,91.13
2019-03-18T17:21:52.036Z,91.33
2019-03-18T17:22:52.031Z,92.66
2019-03-18T17:23:52.022Z,92.27
2019-03-18T17:24:52.018Z,93.23
2019-03-18T17:25:52.010Z,93.79
2019-03-18T17:26:52.003Z,93.99
2019-03-18T17:27:51.994Z,93.51
2019-03-18T17:28:51.989Z,94.32
2019-03-18T17:29:51.979Z,94.79
2019-03-18T17:30:51.974Z,94.98
2019-03-18T17:31:51.965Z,94.79
2019-03-18T17:32:51.974Z,95.36
2019-03-18T17:33:51.950Z,94.79
2019-03-18T17:34:52.245Z,95.36
2019-03-18T17:35:51.939Z,95.36
2019-03-18T17:36:51.930Z,95.36
2019-03-18T17:37:51.920Z,94.70
2019-03-18T17:38:51.916Z,94.13
2019-03-18T17:39:51.906Z,94.32
2019-03-18T17:40:51.902Z,93.65
2019-03-18T17:41:51.891Z,93.65
2019-03-18T17:42:51.886Z,93.18
2019-03-18T17:43:51.876Z,92.99
2019-03-18T17:44:51.886Z,93.27
2019-03-18T17:45:51.861Z,93.08
2019-03-18T17:46:51.856Z,92.71
2019-03-18T17:47:51.846Z,93.27
2019-03-18T17:48:51.848Z,92.32
2019-03-18T17:49:51.831Z,92.71
2019-03-18T17:50:51.827Z,92.51
2019-03-18T17:51:51.818Z,91.85
2019-03-18T17:53:01.453Z,91.85
2019-03-18T17:53:51.800Z,91.66
2019-03-18T17:54:51.798Z,92.13
2019-03-18T17:55:51.786Z,91.47
2019-03-18T17:56:51.780Z,91.85
2019-03-18T17:57:51.776Z,91.75
2019-03-18T17:58:51.764Z,92.23
2019-03-18T17:59:51.756Z,91.66
2019-03-18T18:00:51.750Z,91.85
2019-03-18T18:01:51.747Z,91.75
2019-03-18T18:02:52.849Z,90.99
2019-03-18T18:03:51.724Z,91.47
2019-03-18T18:05:02.293Z,91.66
2019-03-18T18:05:51.731Z,91.38
2019-03-18T18:06:51.703Z,91.38
2019-03-18T18:07:51.693Z,91.94
2019-03-18T18:08:51.695Z,92.04
2019-03-18T18:09:51.977Z,92.13
2019-03-18T18:10:51.672Z,92.71
2019-03-18T18:11:51.663Z,92.23
2019-03-18T18:12:51.657Z,92.90
2019-03-18T18:13:51.646Z,92.99
2019-03-18T18:14:51.640Z,93.27
2019-03-18T18:15:51.732Z,93.56
2019-03-18T18:16:51.625Z,93.65
2019-03-18T18:17:51.626Z,93.84
2019-03-18T18:18:51.611Z,93.84
2019-03-18T18:19:51.599Z,94.03
2019-03-18T18:20:51.594Z,93.94
2019-03-18T18:21:51.583Z,93.94
2019-03-18T18:22:51.578Z,94.23
2019-03-18T18:23:51.567Z,94.32
2019-03-18T18:24:51.562Z,94.51
2019-03-18T18:25:51.551Z,94.18
2019-03-18T18:26:51.545Z,94.74
2019-03-18T18:27:51.536Z,94.74
2019-03-18T18:28:51.530Z,95.12
2019-03-18T18:29:51.519Z,95.12
2019-03-18T18:30:51.536Z,94.93
2019-03-18T18:31:51.504Z,95.12
2019-03-18T18:32:51.498Z,94.74
2019-03-18T18:33:51.487Z,95.22
2019-03-18T18:34:51.482Z,95.41
2019-03-18T18:35:51.472Z,95.51
2019-03-18T18:36:51.471Z,95.60
2019-03-18T18:37:51.455Z,95.70
2019-03-18T18:38:51.449Z,95.31
2019-03-18T18:39:51.740Z,95.70
2019-03-18T18:40:51.435Z,96.17
2019-03-18T18:41:51.424Z,96.08
2019-03-18T18:42:51.418Z,95.79
2019-03-18T18:43:51.407Z,96.17
2019-03-18T18:44:51.401Z,96.17
2019-03-18T18:45:51.390Z,95.89
2019-03-18T18:46:51.389Z,96.26
2019-03-18T18:47:51.375Z,96.08
2019-03-18T18:48:51.372Z,96.08
2019-03-18T18:49:51.360Z,95.98
2019-03-18T18:50:51.365Z,96.45
2019-03-18T18:51:51.342Z,96.55
2019-03-18T18:52:51.343Z,96.45
2019-03-18T18:53:51.326Z,96.45
2019-03-18T18:54:51.325Z,96.36
2019-03-18T18:55:51.309Z,96.36
2019-03-18T18:56:51.318Z,96.36
2019-03-18T18:57:51.307Z,95.41
2019-03-18T18:58:51.287Z,95.89
2019-03-18T18:59:51.277Z,96.17
2019-03-18T19:00:51.270Z,95.70
2019-03-18T19:01:51.264Z,95.89
2019-03-18T19:02:51.253Z,96.17
2019-03-18T19:03:51.242Z,96.55
2019-03-18T19:04:51.237Z,96.36
2019-03-18T19:05:51.225Z,96.26
2019-03-18T19:06:51.226Z,96.45
2019-03-18T19:07:51.209Z,95.41
2019-03-18T19:08:51.202Z,95.60
2019-03-18T19:09:51.494Z,95.89
2019-03-18T19:10:51.184Z,96.08
2019-03-18T19:11:51.179Z,96.08
2019-03-18T19:12:51.167Z,96.26
2019-03-18T19:13:51.161Z,96.17
2019-03-18T19:14:51.150Z,96.17
2019-03-18T19:15:51.144Z,95.89
2019-03-18T19:16:51.183Z,96.45
2019-03-18T19:17:51.128Z,96.08
2019-03-18T19:18:51.131Z,96.17
2019-03-18T19:19:51.111Z,96.36
2019-03-18T19:20:51.102Z,96.17
2019-03-18T19:21:51.095Z,96.26
2019-03-18T19:22:51.084Z,96.93
2019-03-18T19:23:51.080Z,96.93
2019-03-18T19:24:51.067Z,96.17
2019-03-18T19:25:51.061Z,97.41
2019-03-18T19:26:51.051Z,96.45
2019-03-18T19:27:51.044Z,96.64
2019-03-18T19:28:51.034Z,96.83
2019-03-18T19:29:51.027Z,96.83
2019-03-18T19:30:51.018Z,96.93
2019-03-18T19:31:51.010Z,97.12
2019-03-18T19:32:51.000Z,96.64
2019-03-18T19:33:50.996Z,96.83
2019-03-18T19:34:50.983Z,96.74
2019-03-18T19:35:50.984Z,96.83
2019-03-18T19:36:50.966Z,97.12
2019-03-18T19:37:50.962Z,97.02
2019-03-18T19:38:50.949Z,96.83
2019-03-18T19:39:50.947Z,96.74
2019-03-18T19:40:51.233Z,96.93
2019-03-18T19:41:50.926Z,96.93
2019-03-18T19:42:50.916Z,96.83
2019-03-18T19:43:50.909Z,96.64
2019-03-18T19:44:50.902Z,96.93
2019-03-18T19:45:50.892Z,97.55
2019-03-18T19:46:50.882Z,97.50
2019-03-18T19:47:53.029Z,97.12
2019-03-18T19:48:50.867Z,97.83
2019-03-18T19:49:50.860Z,97.69
2019-03-18T19:50:50.848Z,97.83
2019-03-18T19:51:50.842Z,97.36
2019-03-18T19:52:50.831Z,97.55
2019-03-18T19:53:50.824Z,97.92
2019-03-18T19:54:50.814Z,97.78
2019-03-18T19:55:50.812Z,97.69
2019-03-18T19:56:50.798Z,97.78
2019-03-18T19:57:50.790Z,97.31
2019-03-18T19:58:50.780Z,97.60
2019-03-18T19:59:50.779Z,97.60
2019-03-18T20:00:50.765Z,97.69
2019-03-18T20:01:50.757Z,97.78
2019-03-18T20:02:50.746Z,97.97
2019-03-18T20:03:50.742Z,97.78
2019-03-18T20:04:50.730Z,97.60
2019-03-18T20:05:50.722Z,98.07
2019-03-18T20:06:50.712Z,97.60
2019-03-18T20:07:50.707Z,97.60
2019-03-18T20:08:50.696Z,97.22
2019-03-18T20:09:50.693Z,97.22
2019-03-18T20:10:50.678Z,97.31
2019-03-18T20:11:50.673Z,97.31
2019-03-18T20:12:50.663Z,98.07
2019-03-18T20:13:50.664Z,97.97
2019-03-18T20:14:50.645Z,97.64
2019-03-18T20:15:50.640Z,97.74
2019-03-18T20:16:50.629Z,97.69
2019-03-18T20:17:50.622Z,97.78
2019-03-18T20:18:50.613Z,97.78
2019-03-18T20:19:50.616Z,97.60
2019-03-18T20:20:50.613Z,97.74
2019-03-18T20:21:50.588Z,97.74
2019-03-18T20:22:50.581Z,97.97
2019-03-18T20:24:00.423Z,97.78
2019-03-18T20:24:50.562Z,97.60
2019-03-18T20:25:50.554Z,97.88
2019-03-18T20:26:50.544Z,98.35
2019-03-18T20:27:50.538Z,97.69
2019-03-18T20:28:50.528Z,98.26
2019-03-18T20:29:50.526Z,98.35
2019-03-18T20:30:50.511Z,98.21
2019-03-18T20:31:50.504Z,98.21
2019-03-18T20:32:50.507Z,98.30
2019-03-18T20:33:50.488Z,98.21
2019-03-18T20:34:50.479Z,98.21
2019-03-18T20:35:50.482Z,98.11
2019-03-18T20:36:50.462Z,98.49
2019-03-18T20:37:51.957Z,98.11
2019-03-18T20:38:50.443Z,99.06
2019-03-18T20:39:50.438Z,98.49
2019-03-18T20:40:50.433Z,98.59
2019-03-18T20:41:50.428Z,98.68
2019-03-18T20:42:50.427Z,98.97
2019-03-18T20:43:50.404Z,98.78
2019-03-18T20:44:50.394Z,98.87
2019-03-18T20:45:50.689Z,98.87
2019-03-18T20:46:50.376Z,99.06
2019-03-18T20:47:50.370Z,98.68
2019-03-18T20:48:50.359Z,98.59
2019-03-18T20:49:50.352Z,98.68
2019-03-18T20:50:50.342Z,99.26
2019-03-18T20:51:50.340Z,98.49
2019-03-18T20:52:50.326Z,99.44
2019-03-18T20:53:50.331Z,99.35
2019-03-18T20:54:50.308Z,98.68
2019-03-18T20:55:50.306Z,98.40
2019-03-18T20:56:50.292Z,98.78
2019-03-18T20:57:50.285Z,98.97
2019-03-18T20:58:50.278Z,98.78
2019-03-18T20:59:50.268Z,98.49
2019-03-18T21:00:52.883Z,98.59
2019-03-18T21:01:50.251Z,98.68
2019-03-18T21:02:50.241Z,98.97
2019-03-18T21:03:50.235Z,98.30
2019-03-18T21:04:50.223Z,98.97
2019-03-18T21:05:50.218Z,98.68
2019-03-18T21:06:50.206Z,98.68
2019-03-18T21:07:50.201Z,98.97
2019-03-18T21:08:50.189Z,99.26
2019-03-18T21:09:50.181Z,98.59
2019-03-18T21:10:50.173Z,98.49
2019-03-18T21:11:50.164Z,98.87
2019-03-18T21:12:50.153Z,99.82
2019-03-18T21:13:56.979Z,99.26
2019-03-18T21:14:50.136Z,99.30
2019-03-18T21:15:50.433Z,99.16
2019-03-18T21:16:50.120Z,98.97
2019-03-18T21:17:50.112Z,99.44
2019-03-18T21:18:50.102Z,99.73
2019-03-18T21:19:50.094Z,99.73
2019-03-18T21:20:50.093Z,99.99
2019-03-18T21:21:50.080Z,99.54
2019-03-18T21:22:50.072Z,99.99
2019-03-18T21:23:50.058Z,99.87
2019-03-18T21:24:50.048Z,99.99
2019-03-18T21:25:50.040Z,99.99
2019-03-18T21:26:50.030Z,99.96
2019-03-18T21:27:50.022Z,99.99
2019-03-18T21:28:50.013Z,99.99
2019-03-18T21:29:50.005Z,99.99
2019-03-18T21:30:49.993Z,99.99
2019-03-18T21:31:49.987Z,99.99
2019-03-18T21:32:49.994Z,99.99
2019-03-18T21:33:49.972Z,99.99
2019-03-18T21:34:49.969Z,99.99
2019-03-18T21:35:49.951Z,99.99
2019-03-18T21:36:49.941Z,99.99
2019-03-18T21:37:49.934Z,99.99
2019-03-18T21:38:49.923Z,99.99
2019-03-18T21:39:49.921Z,99.99
2019-03-18T21:40:49.906Z,99.99
2019-03-18T21:41:49.897Z,99.99
2019-03-18T21:42:49.889Z,99.99
2019-03-18T21:43:49.880Z,99.99
2019-03-18T21:44:49.869Z,99.99
2019-03-18T21:45:49.861Z,99.99
2019-03-18T21:46:50.151Z,99.99
2019-03-18T21:47:49.852Z,99.99
2019-03-18T21:48:49.834Z,99.99
2019-03-18T21:49:49.825Z,99.99
2019-03-18T21:50:49.814Z,99.99
2019-03-18T21:51:49.809Z,99.99
2019-03-18T21:52:49.801Z,99.99
2019-03-18T21:53:49.791Z,99.99
2019-03-18T21:54:49.778Z,99.99
2019-03-18T21:55:49.771Z,99.99
2019-03-18T21:56:49.761Z,99.99
2019-03-18T21:57:49.808Z,99.99
2019-03-18T21:58:49.742Z,99.99
2019-03-18T21:59:49.735Z,99.99
2019-03-18T22:00:49.724Z,99.99
2019-03-18T22:01:49.717Z,99.99
2019-03-18T22:02:49.707Z,99.99
2019-03-18T22:03:49.699Z,99.99
2019-03-18T22:04:49.692Z,99.99
2019-03-18T22:05:49.679Z,99.99
2019-03-18T22:06:49.668Z,99.99
2019-03-18T22:07:49.661Z,99.99
2019-03-18T22:08:49.650Z,99.99
2019-03-18T22:09:49.644Z,99.99
2019-03-18T22:10:49.632Z,99.99
2019-03-18T22:11:49.625Z,99.99
2019-03-18T22:12:49.613Z,99.99
2019-03-18T22:13:49.606Z,99.99
2019-03-18T22:14:49.594Z,99.99
2019-03-18T22:15:49.597Z,99.99
2019-03-18T22:16:49.577Z,99.99
2019-03-18T22:17:49.568Z,99.99
2019-03-18T22:18:49.558Z,99.99
2019-03-18T22:19:49.552Z,99.99
2019-03-18T22:20:49.541Z,99.99
2019-03-18T22:21:49.834Z,99.99
2019-03-18T22:22:49.522Z,99.99
2019-03-18T22:23:49.516Z,99.99
2019-03-18T22:24:50.143Z,99.99
2019-03-18T22:25:49.502Z,99.99
2019-03-18T22:26:49.487Z,99.99
2019-03-18T22:27:49.629Z,99.99
2019-03-18T22:28:49.467Z,99.99
2019-03-18T22:29:49.458Z,99.99
2019-03-18T22:30:49.446Z,99.99
2019-03-18T22:31:49.439Z,99.99
2019-03-18T22:32:49.435Z,99.99
2019-03-18T22:33:49.420Z,99.99
2019-03-18T22:34:49.408Z,99.99
2019-03-18T22:35:49.401Z,99.99
2019-03-18T22:36:49.392Z,99.99
2019-03-18T22:37:49.382Z,99.99
2019-03-18T22:38:49.377Z,99.99
2019-03-18T22:39:49.363Z,99.99
2019-03-18T22:40:49.352Z,99.99
2019-03-18T22:41:49.345Z,99.99
2019-03-18T22:42:49.332Z,99.99
2019-03-18T22:43:49.329Z,99.99
2019-03-18T22:44:49.314Z,99.99
2019-03-18T22:45:49.308Z,99.99
2019-03-18T22:46:49.294Z,99.99
2019-03-18T22:47:49.287Z,99.99
2019-03-18T22:48:49.275Z,99.99
2019-03-18T22:49:49.267Z,99.99
2019-03-18T22:50:49.255Z,99.99
2019-03-18T22:51:49.550Z,99.99
2019-03-18T22:52:49.245Z,99.99
2019-03-18T22:53:49.228Z,99.99
2019-03-18T22:54:55.896Z,99.99
2019-03-18T22:55:49.221Z,99.99
2019-03-18T22:56:49.197Z,99.99
2019-03-18T22:57:49.188Z,99.99
2019-03-18T22:58:49.177Z,99.99
2019-03-18T22:59:49.173Z,99.99
2019-03-18T23:00:49.160Z,99.99
2019-03-18T23:01:49.150Z,99.99
2019-03-18T23:02:49.138Z,99.99
2019-03-18T23:03:49.130Z,99.99
2019-03-18T23:04:49.119Z,99.99
2019-03-18T23:05:49.110Z,99.99
2019-03-18T23:06:49.099Z,99.99
2019-03-18T23:07:49.094Z,99.99
2019-03-18T23:08:49.151Z,99.99
2019-03-18T23:09:49.072Z,99.99
2019-03-18T23:10:49.061Z,99.99
2019-03-18T23:11:49.052Z,99.99
2019-03-18T23:12:49.040Z,99.99
2019-03-18T23:13:49.032Z,99.99
2019-03-18T23:14:49.020Z,99.99
2019-03-18T23:15:49.012Z,99.99
2019-03-18T23:16:49.001Z,99.99
2019-03-18T23:17:48.992Z,99.99
2019-03-18T23:18:48.980Z,99.99
2019-03-18T23:19:48.975Z,99.99
2019-03-18T23:20:48.968Z,99.99
2019-03-18T23:21:48.953Z,99.99
2019-03-18T23:22:49.243Z,99.99
2019-03-18T23:23:48.934Z,99.99
2019-03-18T23:24:48.924Z,99.99
2019-03-18T23:25:48.912Z,99.99
2019-03-18T23:26:48.904Z,99.99
2019-03-18T23:27:48.896Z,99.99
2019-03-18T23:28:48.885Z,99.99
2019-03-18T23:29:48.872Z,99.99
2019-03-18T23:30:48.864Z,99.99
2019-03-18T23:31:48.851Z,99.99
2019-03-18T23:32:48.846Z,99.99
2019-03-18T23:33:48.841Z,99.99
2019-03-18T23:34:48.822Z,99.99
2019-03-18T23:35:48.812Z,99.99
2019-03-18T23:36:48.802Z,99.99
2019-03-18T23:37:48.788Z,99.99
2019-03-18T23:38:48.781Z,99.99
2019-03-18T23:39:48.770Z,99.99
2019-03-18T23:40:48.761Z,99.99
2019-03-18T23:41:48.748Z,99.99
2019-03-18T23:42:48.741Z,99.99
2019-03-18T23:43:48.727Z,99.99